createdAt,value
2023-04-20T00:00:34.495Z,436.00
2023-04-20T00:01:34.506Z,437.00
2023-04-20T00:02:34.533Z,437.00
2023-04-20T00:03:34.623Z,438.00
2023-04-20T00:04:34.618Z,438.00
2023-04-20T00:05:34.550Z,436.00
2023-04-20T00:06:34.496Z,434.00
2023-04-20T00:07:34.505Z,435.00
2023-04-20T00:08:34.470Z,434.00
2023-04-20T00:09:34.486Z,434.00
2023-04-20T00:10:34.466Z,434.00
2023-04-20T00:11:34.434Z,432.00
2023-04-20T00:12:34.466Z,434.00
2023-04-20T00:13:34.453Z,435.00
2023-04-20T00:14:34.487Z,434.00
2023-04-20T00:15:34.497Z,434.00
2023-04-20T00:16:34.487Z,433.00
2023-04-20T00:17:34.454Z,431.00
2023-04-20T00:18:34.455Z,431.00
2023-04-20T00:19:34.408Z,432.00
2023-04-20T00:20:34.416Z,434.00
2023-04-20T00:21:34.420Z,435.00
2023-04-20T00:22:34.428Z,435.00
2023-04-20T00:23:34.391Z,433.00
2023-04-20T00:24:34.380Z,435.00
2023-04-20T00:25:34.388Z,435.00
2023-04-20T00:26:34.427Z,435.00
2023-04-20T00:27:34.420Z,435.00
2023-04-20T00:28:34.386Z,434.00
2023-04-20T00:29:34.408Z,434.00
2023-04-20T00:30:34.463Z,436.00
2023-04-20T00:31:34.384Z,437.00
2023-04-20T00:32:34.381Z,436.00
2023-04-20T00:33:34.381Z,435.00
2023-04-20T00:34:34.391Z,436.00
2023-04-20T00:35:34.393Z,435.00
2023-04-20T00:36:34.380Z,433.00
2023-04-20T00:37:34.401Z,435.00
2023-04-20T00:38:34.402Z,437.00
2023-04-20T00:39:34.417Z,438.00
2023-04-20T00:40:34.376Z,438.00
2023-04-20T00:41:34.386Z,439.00
2023-04-20T00:42:34.370Z,437.00
2023-04-20T00:43:34.389Z,439.00
2023-04-20T00:44:34.386Z,440.00
2023-04-20T00:45:34.350Z,439.00
2023-04-20T00:46:34.450Z,438.00
2023-04-20T00:47:34.397Z,438.00
2023-04-20T00:48:34.356Z,436.00
2023-04-20T00:49:34.410Z,434.00
2023-04-20T00:50:34.360Z,435.00
2023-04-20T00:51:34.382Z,436.00
2023-04-20T00:52:34.365Z,436.00
2023-04-20T00:53:34.365Z,438.00
2023-04-20T00:54:34.338Z,438.00
2023-04-20T00:55:34.352Z,437.00
2023-04-20T00:56:34.355Z,436.00
2023-04-20T00:57:34.372Z,438.00
2023-04-20T00:58:34.379Z,436.00
2023-04-20T00:59:34.354Z,436.00
2023-04-20T01:00:34.352Z,435.00
2023-04-20T01:01:34.365Z,432.00
2023-04-20T01:02:34.450Z,431.00
2023-04-20T01:03:34.619Z,427.00
2023-04-20T01:04:34.373Z,428.00
2023-04-20T01:05:34.342Z,429.00
2023-04-20T01:06:34.348Z,428.00
2023-04-20T01:07:34.363Z,429.00
2023-04-20T01:08:34.368Z,431.00
2023-04-20T01:09:34.368Z,435.00
2023-04-20T01:10:34.353Z,433.00
2023-04-20T01:11:34.367Z,433.00
2023-04-20T01:12:34.358Z,434.00
2023-04-20T01:13:34.368Z,433.00
2023-04-20T01:14:34.370Z,436.00
2023-04-20T01:15:34.366Z,437.00
2023-04-20T01:16:34.495Z,435.00
2023-04-20T01:17:34.388Z,435.00
2023-04-20T01:18:34.360Z,437.00
2023-04-20T01:19:34.385Z,435.00
2023-04-20T01:20:34.376Z,436.00
2023-04-20T01:21:34.373Z,435.00
2023-04-20T01:22:34.366Z,435.00
2023-04-20T01:23:34.392Z,433.00
2023-04-20T01:24:34.368Z,430.00
2023-04-20T01:25:34.373Z,433.00
2023-04-20T01:26:34.341Z,436.00
2023-04-20T01:27:34.392Z,437.00
2023-04-20T01:28:34.351Z,436.00
2023-04-20T01:29:34.355Z,436.00
2023-04-20T01:30:34.387Z,436.00
2023-04-20T01:31:34.484Z,435.00
2023-04-20T01:32:34.383Z,435.00
2023-04-20T01:33:34.370Z,433.00
2023-04-20T01:34:34.362Z,431.00
2023-04-20T01:35:34.363Z,431.00
2023-04-20T01:36:34.359Z,431.00
2023-04-20T01:37:34.325Z,428.00
2023-04-20T01:38:34.344Z,427.00
2023-04-20T01:39:34.377Z,428.00
2023-04-20T01:40:34.299Z,430.00
2023-04-20T01:41:34.322Z,430.00
2023-04-20T01:42:34.324Z,431.00
2023-04-20T01:43:34.317Z,431.00
2023-04-20T01:44:34.306Z,433.00
2023-04-20T01:45:34.332Z,433.00
2023-04-20T01:46:34.360Z,436.00
2023-04-20T01:47:34.329Z,434.00
2023-04-20T01:48:34.344Z,433.00
2023-04-20T01:49:34.305Z,432.00
2023-04-20T01:50:34.326Z,432.00
2023-04-20T01:51:34.318Z,431.00
2023-04-20T01:52:34.312Z,432.00
2023-04-20T01:53:34.325Z,431.00
2023-04-20T01:54:34.306Z,430.00
2023-04-20T01:55:34.269Z,431.00
2023-04-20T01:56:34.275Z,429.00
2023-04-20T01:57:34.356Z,429.00
2023-04-20T01:58:34.266Z,429.00
2023-04-20T01:59:34.293Z,433.00
2023-04-20T02:00:34.322Z,435.00
2023-04-20T02:01:34.282Z,436.00
2023-04-20T02:02:34.345Z,437.00
2023-04-20T02:03:34.369Z,438.00
2023-04-20T02:04:34.302Z,438.00
2023-04-20T02:05:34.236Z,440.00
2023-04-20T02:06:34.257Z,439.00
2023-04-20T02:07:34.220Z,438.00
2023-04-20T02:08:34.216Z,438.00
2023-04-20T02:09:34.199Z,435.00
2023-04-20T02:10:34.218Z,434.00
2023-04-20T02:11:34.156Z,435.00
2023-04-20T02:12:34.167Z,436.00
2023-04-20T02:13:34.138Z,435.00
2023-04-20T02:14:34.201Z,435.00
2023-04-20T02:15:34.200Z,434.00
2023-04-20T02:16:34.237Z,435.00
2023-04-20T02:17:34.215Z,437.00
2023-04-20T02:18:34.107Z,438.00
2023-04-20T02:19:34.167Z,439.00
2023-04-20T02:20:34.090Z,437.00
2023-04-20T02:21:34.107Z,435.00
2023-04-20T02:22:34.052Z,435.00
2023-04-20T02:23:34.072Z,434.00
2023-04-20T02:24:34.106Z,434.00
2023-04-20T02:25:34.085Z,436.00
2023-04-20T02:26:34.086Z,436.00
2023-04-20T02:27:34.107Z,436.00
2023-04-20T02:28:34.129Z,438.00
2023-04-20T02:29:34.103Z,439.00
2023-04-20T02:30:34.075Z,441.00
2023-04-20T02:31:34.265Z,442.00
2023-04-20T02:32:34.121Z,439.00
2023-04-20T02:33:34.090Z,437.00
2023-04-20T02:34:34.055Z,435.00
2023-04-20T02:35:34.093Z,434.00
2023-04-20T02:36:34.080Z,434.00
2023-04-20T02:37:34.068Z,434.00
2023-04-20T02:38:34.020Z,434.00
2023-04-20T02:39:34.043Z,433.00
2023-04-20T02:40:34.004Z,433.00
2023-04-20T02:41:34.064Z,433.00
2023-04-20T02:42:34.059Z,434.00
2023-04-20T02:43:34.058Z,434.00
2023-04-20T02:44:34.057Z,433.00
2023-04-20T02:45:34.052Z,434.00
2023-04-20T02:46:34.130Z,436.00
2023-04-20T02:47:34.116Z,441.00
2023-04-20T02:48:34.134Z,441.00
2023-04-20T02:49:34.127Z,440.00
2023-04-20T02:50:34.149Z,441.00
2023-04-20T02:51:34.178Z,443.00
2023-04-20T02:52:34.205Z,443.00
2023-04-20T02:53:34.174Z,442.00
2023-04-20T02:54:34.191Z,439.00
2023-04-20T02:55:34.190Z,437.00
2023-04-20T02:56:34.232Z,436.00
2023-04-20T02:57:34.222Z,436.00
2023-04-20T02:58:34.226Z,434.00
2023-04-20T02:59:34.247Z,433.00
2023-04-20T03:00:34.245Z,432.00
2023-04-20T03:01:34.283Z,430.00
2023-04-20T03:02:34.418Z,430.00
2023-04-20T03:03:34.361Z,429.00
2023-04-20T03:04:34.371Z,427.00
2023-04-20T03:05:34.253Z,428.00
2023-04-20T03:06:34.263Z,428.00
2023-04-20T03:07:34.263Z,429.00
2023-04-20T03:08:34.273Z,429.00
2023-04-20T03:09:34.262Z,432.00
2023-04-20T03:10:34.293Z,433.00
2023-04-20T03:11:34.265Z,434.00
2023-04-20T03:12:34.290Z,433.00
2023-04-20T03:13:34.268Z,430.00
2023-04-20T03:14:34.316Z,429.00
2023-04-20T03:15:34.329Z,428.00
2023-04-20T03:16:34.383Z,431.00
2023-04-20T03:17:34.317Z,433.00
2023-04-20T03:18:34.310Z,432.00
2023-04-20T03:19:34.333Z,429.00
2023-04-20T03:20:34.338Z,428.00
2023-04-20T03:21:34.342Z,430.00
2023-04-20T03:22:34.358Z,431.00
2023-04-20T03:23:34.353Z,432.00
2023-04-20T03:24:34.362Z,435.00
2023-04-20T03:25:34.380Z,436.00
2023-04-20T03:26:34.357Z,436.00
2023-04-20T03:27:34.365Z,436.00
2023-04-20T03:28:34.711Z,436.00
2023-04-20T03:29:34.760Z,435.00
2023-04-20T03:30:34.366Z,434.00
2023-04-20T03:31:34.430Z,432.00
2023-04-20T03:32:34.494Z,435.00
2023-04-20T03:33:34.344Z,438.00
2023-04-20T03:34:34.350Z,439.00
2023-04-20T03:35:34.403Z,434.00
2023-04-20T03:36:34.401Z,433.00
2023-04-20T03:37:34.385Z,432.00
2023-04-20T03:38:34.389Z,430.00
2023-04-20T03:39:34.434Z,431.00
2023-04-20T03:40:34.416Z,433.00
2023-04-20T03:41:34.438Z,434.00
2023-04-20T03:42:34.446Z,435.00
2023-04-20T03:43:34.420Z,439.00
2023-04-20T03:44:34.419Z,439.00
2023-04-20T03:45:34.472Z,439.00
2023-04-20T03:46:34.452Z,443.00
2023-04-20T03:47:34.460Z,440.00
2023-04-20T03:48:34.425Z,441.00
2023-04-20T03:49:34.432Z,440.00
2023-04-20T03:50:34.457Z,437.00
2023-04-20T03:51:34.442Z,436.00
2023-04-20T03:52:34.518Z,436.00
2023-04-20T03:53:34.423Z,436.00
2023-04-20T03:54:34.444Z,436.00
2023-04-20T03:55:34.457Z,436.00
2023-04-20T03:56:34.456Z,437.00
2023-04-20T03:57:34.419Z,438.00
2023-04-20T03:58:34.437Z,438.00
2023-04-20T03:59:34.413Z,437.00
2023-04-20T04:00:34.384Z,435.00
2023-04-20T04:01:34.392Z,434.00
2023-04-20T04:02:36.786Z,434.00
2023-04-20T04:03:34.479Z,434.00
2023-04-20T04:04:34.524Z,433.00
2023-04-20T04:05:34.392Z,431.00
2023-04-20T04:06:34.165Z,430.00
2023-04-20T04:07:34.169Z,430.00
2023-04-20T04:08:34.129Z,433.00
2023-04-20T04:09:34.050Z,433.00
2023-04-20T04:10:34.012Z,434.00
2023-04-20T04:11:33.979Z,434.00
2023-04-20T04:12:33.948Z,432.00
2023-04-20T04:13:34.830Z,435.00
2023-04-20T04:14:33.892Z,437.00
2023-04-20T04:15:33.856Z,436.00
2023-04-20T04:16:33.810Z,436.00
2023-04-20T04:17:33.763Z,435.00
2023-04-20T04:18:33.703Z,436.00
2023-04-20T04:19:33.633Z,436.00
2023-04-20T04:20:33.595Z,438.00
2023-04-20T04:21:33.556Z,438.00
2023-04-20T04:22:33.503Z,440.00
2023-04-20T04:23:33.446Z,439.00
2023-04-20T04:24:33.482Z,438.00
2023-04-20T04:25:33.373Z,439.00
2023-04-20T04:26:33.332Z,440.00
2023-04-20T04:27:33.285Z,442.00
2023-04-20T04:28:33.263Z,441.00
2023-04-20T04:29:33.232Z,440.00
2023-04-20T04:30:33.167Z,441.00
2023-04-20T04:31:33.192Z,442.00
2023-04-20T04:32:33.131Z,443.00
2023-04-20T04:33:33.031Z,445.00
2023-04-20T04:34:33.010Z,446.00
2023-04-20T04:35:33.007Z,447.00
2023-04-20T04:36:32.945Z,447.00
2023-04-20T04:37:32.886Z,448.00
2023-04-20T04:38:32.872Z,449.00
2023-04-20T04:39:32.834Z,448.00
2023-04-20T04:40:32.765Z,448.00
2023-04-20T04:41:32.757Z,449.00
2023-04-20T04:42:32.690Z,448.00
2023-04-20T04:43:32.644Z,444.00
2023-04-20T04:44:32.616Z,442.00
2023-04-20T04:45:32.560Z,441.00
2023-04-20T04:46:32.626Z,439.00
2023-04-20T04:47:32.490Z,438.00
2023-04-20T04:48:32.466Z,440.00
2023-04-20T04:49:32.406Z,442.00
2023-04-20T04:50:32.372Z,442.00
2023-04-20T04:51:32.391Z,442.00
2023-04-20T04:52:32.400Z,442.00
2023-04-20T04:53:32.357Z,442.00
2023-04-20T04:54:32.364Z,442.00
2023-04-20T04:55:32.334Z,442.00
2023-04-20T04:56:32.321Z,446.00
2023-04-20T04:57:32.348Z,445.00
2023-04-20T04:58:32.313Z,445.00
2023-04-20T04:59:32.329Z,442.00
2023-04-20T05:00:32.339Z,440.00
2023-04-20T05:01:39.714Z,437.00
2023-04-20T05:02:32.461Z,436.00
2023-04-20T05:03:32.445Z,436.00
2023-04-20T05:04:32.341Z,436.00
2023-04-20T05:05:32.236Z,435.00
2023-04-20T05:06:32.206Z,437.00
2023-04-20T05:07:32.135Z,439.00
2023-04-20T05:08:32.143Z,441.00
2023-04-20T05:09:32.110Z,444.00
2023-04-20T05:10:32.053Z,445.00
2023-04-20T05:11:31.993Z,445.00
2023-04-20T05:12:31.978Z,445.00
2023-04-20T05:13:31.964Z,445.00
2023-04-20T05:14:31.886Z,445.00
2023-04-20T05:15:31.863Z,443.00
2023-04-20T05:16:31.918Z,442.00
2023-04-20T05:17:31.794Z,443.00
2023-04-20T05:18:31.776Z,442.00
2023-04-20T05:19:31.726Z,440.00
2023-04-20T05:20:31.649Z,441.00
2023-04-20T05:21:31.636Z,443.00
2023-04-20T05:22:31.688Z,441.00
2023-04-20T05:23:31.547Z,438.00
2023-04-20T05:24:31.505Z,437.00
2023-04-20T05:25:31.500Z,438.00
2023-04-20T05:26:31.413Z,439.00
2023-04-20T05:27:31.383Z,437.00
2023-04-20T05:28:31.342Z,436.00
2023-04-20T05:29:31.346Z,435.00
2023-04-20T05:30:31.291Z,436.00
2023-04-20T05:31:31.311Z,436.00
2023-04-20T05:32:31.730Z,441.00
2023-04-20T05:33:31.288Z,475.00
2023-04-20T05:34:31.313Z,480.00
2023-04-20T05:35:31.308Z,483.00
2023-04-20T05:36:31.315Z,488.00
2023-04-20T05:37:31.667Z,497.00
2023-04-20T05:38:31.333Z,515.00
2023-04-20T05:39:31.314Z,524.00
2023-04-20T05:40:31.345Z,527.00
2023-04-20T05:41:31.371Z,536.00
2023-04-20T05:42:31.684Z,541.00
2023-04-20T05:43:31.409Z,594.00
2023-04-20T05:44:31.399Z,601.00
2023-04-20T05:45:38.507Z,615.00
2023-04-20T05:46:31.406Z,626.00
2023-04-20T05:47:31.776Z,636.00
2023-04-20T05:48:31.432Z,641.00
2023-04-20T05:49:31.347Z,650.00
2023-04-20T05:50:31.319Z,729.00
2023-04-20T05:51:31.231Z,734.00
2023-04-20T05:52:31.200Z,767.00
2023-04-20T05:53:31.167Z,799.00
2023-04-20T05:54:31.105Z,823.00
2023-04-20T05:55:31.088Z,832.00
2023-04-20T05:56:31.121Z,838.00
2023-04-20T05:57:31.014Z,843.00
2023-04-20T05:58:30.967Z,851.00
2023-04-20T05:59:30.942Z,863.00
2023-04-20T06:00:30.932Z,871.00
2023-04-20T06:01:30.824Z,879.00
2023-04-20T06:02:30.905Z,887.00
2023-04-20T06:03:30.896Z,895.00
2023-04-20T06:04:30.981Z,904.00
2023-04-20T06:05:30.700Z,913.00
2023-04-20T06:06:30.674Z,919.00
2023-04-20T06:07:30.634Z,925.00
2023-04-20T06:08:30.573Z,924.00
2023-04-20T06:09:30.564Z,929.00
2023-04-20T06:10:30.501Z,931.00
2023-04-20T06:11:30.524Z,940.00
2023-04-20T06:12:30.423Z,951.00
2023-04-20T06:13:30.432Z,958.00
2023-04-20T06:14:30.432Z,963.00
2023-04-20T06:15:30.419Z,972.00
2023-04-20T06:16:30.362Z,984.00
2023-04-20T06:17:30.323Z,1001.00
2023-04-20T06:18:30.232Z,1006.00
2023-04-20T06:19:30.116Z,1010.00
2023-04-20T06:20:30.161Z,1008.00
2023-04-20T06:21:30.046Z,1000.00
2023-04-20T06:22:30.021Z,992.00
2023-04-20T06:23:30.068Z,983.00
2023-04-20T06:24:29.981Z,979.00
2023-04-20T06:25:29.990Z,972.00
2023-04-20T06:26:29.893Z,966.00
2023-04-20T06:27:29.799Z,962.00
2023-04-20T06:28:30.178Z,954.00
2023-04-20T06:29:29.827Z,947.00
2023-04-20T06:30:29.723Z,945.00
2023-04-20T06:31:29.809Z,947.00
2023-04-20T06:32:29.712Z,943.00
2023-04-20T06:33:30.168Z,939.00
2023-04-20T06:34:29.687Z,940.00
2023-04-20T06:35:30.610Z,940.00
2023-04-20T06:36:29.817Z,942.00
2023-04-20T06:37:30.177Z,941.00
2023-04-20T06:38:29.630Z,936.00
2023-04-20T06:39:29.643Z,938.00
2023-04-20T06:40:29.576Z,937.00
2023-04-20T06:41:29.570Z,931.00
2023-04-20T06:42:29.649Z,930.00
2023-04-20T06:43:29.676Z,933.00
2023-04-20T06:44:29.531Z,955.00
2023-04-20T06:45:29.525Z,974.00
2023-04-20T06:46:29.539Z,1028.00
2023-04-20T06:47:29.506Z,1050.00
2023-04-20T06:48:32.600Z,1044.00
2023-04-20T06:49:29.389Z,1050.00
2023-04-20T06:50:29.337Z,1125.00
2023-04-20T06:51:29.323Z,1127.00
2023-04-20T06:52:29.255Z,1123.00
2023-04-20T06:53:29.741Z,1129.00
2023-04-20T06:54:29.162Z,1141.00
2023-04-20T06:55:29.154Z,1155.00
2023-04-20T06:56:29.090Z,1182.00
2023-04-20T06:57:29.056Z,1193.00
2023-04-20T06:58:29.011Z,1201.00
2023-04-20T06:59:28.948Z,1217.00
2023-04-20T07:00:28.918Z,1214.00
2023-04-20T07:01:28.916Z,1220.00
2023-04-20T07:02:28.955Z,1223.00
2023-04-20T07:03:28.980Z,1263.00
2023-04-20T07:04:28.754Z,1265.00
2023-04-20T07:05:28.684Z,1268.00
2023-04-20T07:06:28.637Z,1264.00
2023-04-20T07:07:28.599Z,1280.00
2023-04-20T07:08:28.559Z,1302.00
2023-04-20T07:09:28.466Z,1309.00
2023-04-20T07:10:28.407Z,1297.00
2023-04-20T07:11:28.708Z,1306.00
2023-04-20T07:12:28.322Z,1312.00
2023-04-20T07:13:33.177Z,1319.00
2023-04-20T07:14:29.241Z,1333.00
2023-04-20T07:15:28.196Z,1343.00
2023-04-20T07:16:28.122Z,1342.00
2023-04-20T07:17:28.112Z,1347.00
2023-04-20T07:18:27.981Z,1351.00
2023-04-20T07:19:27.962Z,1359.00
2023-04-20T07:20:27.901Z,1368.00
2023-04-20T07:21:27.877Z,1373.00
2023-04-20T07:22:27.798Z,1378.00
2023-04-20T07:23:28.224Z,1387.00
2023-04-20T07:24:27.697Z,1415.00
2023-04-20T07:25:27.673Z,1412.00
2023-04-20T07:26:27.674Z,1412.00
2023-04-20T07:27:27.658Z,1536.00
2023-04-20T07:28:27.680Z,1532.00
2023-04-20T07:29:27.677Z,1514.00
2023-04-20T07:30:27.658Z,1514.00
2023-04-20T07:31:27.675Z,1516.00
2023-04-20T07:32:27.675Z,1564.00
2023-04-20T07:33:27.676Z,1622.00
2023-04-20T07:34:27.636Z,1621.00
2023-04-20T07:35:27.634Z,1628.00
2023-04-20T07:36:27.628Z,1613.00
2023-04-20T07:37:27.609Z,1623.00
2023-04-20T07:38:27.609Z,1292.00
2023-04-20T07:39:27.560Z,1325.00
2023-04-20T07:40:27.544Z,1000.00
2023-04-20T07:41:27.554Z,909.00
2023-04-20T07:42:27.549Z,699.00
2023-04-20T07:43:27.556Z,815.00
2023-04-20T07:44:27.530Z,787.00
2023-04-20T07:45:27.594Z,810.00
2023-04-20T07:46:27.505Z,839.00
2023-04-20T07:47:27.508Z,825.00
2023-04-20T07:48:27.781Z,819.00
2023-04-20T07:49:27.491Z,887.00
2023-04-20T07:50:27.507Z,878.00
2023-04-20T07:51:27.473Z,865.00
2023-04-20T07:52:27.483Z,888.00
2023-04-20T07:53:27.487Z,903.00
2023-04-20T07:54:27.484Z,913.00
2023-04-20T07:55:27.514Z,919.00
2023-04-20T07:56:27.510Z,908.00
2023-04-20T07:57:27.519Z,872.00
2023-04-20T07:58:27.695Z,858.00
2023-04-20T07:59:27.540Z,851.00
2023-04-20T08:00:27.526Z,843.00
2023-04-20T08:01:27.562Z,832.00
2023-04-20T08:02:27.669Z,788.00
2023-04-20T08:03:27.792Z,759.00
2023-04-20T08:04:27.890Z,742.00
2023-04-20T08:05:27.708Z,724.00
2023-04-20T08:06:27.629Z,725.00
2023-04-20T08:07:27.632Z,735.00
2023-04-20T08:08:27.617Z,736.00
2023-04-20T08:09:27.620Z,732.00
2023-04-20T08:10:27.598Z,713.00
2023-04-20T08:11:27.599Z,695.00
2023-04-20T08:12:27.605Z,687.00
2023-04-20T08:13:27.665Z,685.00
2023-04-20T08:14:27.678Z,674.00
2023-04-20T08:15:27.668Z,685.00
2023-04-20T08:16:27.723Z,691.00
2023-04-20T08:17:27.675Z,707.00
2023-04-20T08:18:27.699Z,713.00
2023-04-20T08:19:27.681Z,718.00
2023-04-20T08:20:27.773Z,711.00
2023-04-20T08:21:28.737Z,703.00
2023-04-20T08:22:27.778Z,708.00
2023-04-20T08:23:27.842Z,718.00
2023-04-20T08:24:27.795Z,774.00
2023-04-20T08:25:27.842Z,745.00
2023-04-20T08:26:27.806Z,725.00
2023-04-20T08:27:27.857Z,727.00
2023-04-20T08:28:33.524Z,728.00
2023-04-20T08:29:28.779Z,722.00
2023-04-20T08:30:27.771Z,719.00
2023-04-20T08:31:27.824Z,730.00
2023-04-20T08:32:27.799Z,743.00
2023-04-20T08:33:27.725Z,754.00
2023-04-20T08:34:27.710Z,753.00
2023-04-20T08:35:27.773Z,587.00
2023-04-20T08:36:27.795Z,568.00
2023-04-20T08:37:27.716Z,542.00
2023-04-20T08:38:33.704Z,509.00
2023-04-20T08:39:28.691Z,503.00
2023-04-20T08:40:27.695Z,511.00
2023-04-20T08:41:27.671Z,515.00
2023-04-20T08:42:27.644Z,512.00
2023-04-20T08:43:27.630Z,513.00
2023-04-20T08:44:27.605Z,510.00
2023-04-20T08:45:27.606Z,508.00
2023-04-20T08:46:27.624Z,507.00
2023-04-20T08:47:27.580Z,503.00
2023-04-20T08:48:27.536Z,498.00
2023-04-20T08:49:27.762Z,492.00
2023-04-20T08:50:27.528Z,486.00
2023-04-20T08:51:27.565Z,482.00
2023-04-20T08:52:27.630Z,480.00
2023-04-20T08:53:27.579Z,485.00
2023-04-20T08:54:27.562Z,520.00
2023-04-20T08:55:27.561Z,539.00
2023-04-20T08:56:27.559Z,572.00
2023-04-20T08:57:27.572Z,590.00
2023-04-20T08:58:27.552Z,590.00
2023-04-20T08:59:27.728Z,591.00
2023-04-20T09:00:27.600Z,613.00
2023-04-20T09:01:34.518Z,612.00
2023-04-20T09:02:28.788Z,611.00
2023-04-20T09:03:27.641Z,615.00
2023-04-20T09:04:28.066Z,613.00
2023-04-20T09:05:27.786Z,608.00
2023-04-20T09:06:27.509Z,608.00
2023-04-20T09:07:27.485Z,600.00
2023-04-20T09:08:27.424Z,601.00
2023-04-20T09:09:27.401Z,596.00
2023-04-20T09:10:27.399Z,593.00
2023-04-20T09:11:27.368Z,579.00
2023-04-20T09:12:27.365Z,618.00
2023-04-20T09:13:27.380Z,635.00
2023-04-20T09:14:27.377Z,642.00
2023-04-20T09:15:27.424Z,651.00
2023-04-20T09:16:27.434Z,657.00
2023-04-20T09:17:27.450Z,675.00
2023-04-20T09:18:27.357Z,745.00
2023-04-20T09:19:27.388Z,746.00
2023-04-20T09:20:27.389Z,735.00
2023-04-20T09:21:27.373Z,739.00
2023-04-20T09:22:27.328Z,750.00
2023-04-20T09:23:27.308Z,766.00
2023-04-20T09:24:27.329Z,786.00
2023-04-20T09:25:28.817Z,798.00
2023-04-20T09:26:27.366Z,826.00
2023-04-20T09:27:27.373Z,845.00
2023-04-20T09:28:27.351Z,862.00
2023-04-20T09:29:27.338Z,892.00
2023-04-20T09:30:27.358Z,891.00
2023-04-20T09:31:27.396Z,902.00
2023-04-20T09:32:27.376Z,906.00
2023-04-20T09:33:27.304Z,919.00
2023-04-20T09:34:27.313Z,927.00
2023-04-20T09:35:27.295Z,929.00
2023-04-20T09:36:27.344Z,950.00
2023-04-20T09:37:27.233Z,961.00
2023-04-20T09:38:27.251Z,974.00
2023-04-20T09:39:27.227Z,982.00
2023-04-20T09:40:27.292Z,984.00
2023-04-20T09:41:27.767Z,983.00
2023-04-20T09:42:27.120Z,985.00
2023-04-20T09:43:27.101Z,1087.00
2023-04-20T09:44:27.076Z,1098.00
2023-04-20T09:45:27.121Z,1101.00
2023-04-20T09:46:27.081Z,1091.00
2023-04-20T09:47:27.071Z,913.00
2023-04-20T09:48:26.972Z,797.00
2023-04-20T09:49:27.011Z,767.00
2023-04-20T09:50:34.945Z,742.00
2023-04-20T09:51:27.980Z,757.00
2023-04-20T09:52:26.946Z,826.00
2023-04-20T09:53:26.892Z,821.00
2023-04-20T09:54:26.848Z,820.00
2023-04-20T09:55:27.304Z,822.00
2023-04-20T09:56:26.763Z,757.00
2023-04-20T09:57:26.702Z,714.00
2023-04-20T09:58:26.658Z,698.00
2023-04-20T09:59:26.671Z,702.00
2023-04-20T10:00:26.771Z,711.00
2023-04-20T10:01:26.644Z,715.00
2023-04-20T10:02:26.728Z,744.00
2023-04-20T10:03:26.702Z,741.00
2023-04-20T10:04:26.720Z,689.00
2023-04-20T10:05:26.616Z,674.00
2023-04-20T10:06:26.578Z,736.00
2023-04-20T10:07:26.601Z,702.00
2023-04-20T10:08:26.603Z,693.00
2023-04-20T10:09:26.563Z,695.00
2023-04-20T10:10:27.184Z,697.00
2023-04-20T10:11:27.963Z,699.00
2023-04-20T10:12:26.631Z,757.00
2023-04-20T10:13:26.523Z,751.00
2023-04-20T10:14:26.470Z,776.00
2023-04-20T10:15:26.454Z,781.00
2023-04-20T10:16:26.450Z,774.00
2023-04-20T10:17:26.400Z,768.00
2023-04-20T10:18:26.446Z,768.00
2023-04-20T10:19:26.249Z,793.00
2023-04-20T10:20:26.378Z,783.00
2023-04-20T10:21:26.186Z,711.00
2023-04-20T10:22:26.136Z,690.00
2023-04-20T10:23:26.076Z,704.00
2023-04-20T10:24:25.988Z,712.00
2023-04-20T10:25:25.980Z,702.00
2023-04-20T10:26:25.936Z,701.00
2023-04-20T10:27:25.967Z,712.00
2023-04-20T10:28:25.982Z,717.00
2023-04-20T10:29:25.930Z,716.00
2023-04-20T10:30:26.303Z,718.00
2023-04-20T10:31:25.979Z,724.00
2023-04-20T10:32:26.021Z,730.00
2023-04-20T10:33:25.939Z,738.00
2023-04-20T10:34:25.939Z,749.00
2023-04-20T10:35:25.946Z,783.00
2023-04-20T10:36:25.952Z,790.00
2023-04-20T10:37:25.970Z,804.00
2023-04-20T10:38:25.963Z,654.00
2023-04-20T10:39:25.998Z,612.00
2023-04-20T10:40:26.292Z,608.00
2023-04-20T10:41:25.992Z,600.00
2023-04-20T10:42:25.914Z,609.00
2023-04-20T10:43:25.955Z,542.00
2023-04-20T10:44:26.072Z,556.00
2023-04-20T10:45:26.306Z,593.00
2023-04-20T10:46:26.017Z,608.00
2023-04-20T10:47:26.024Z,616.00
2023-04-20T10:48:25.953Z,620.00
2023-04-20T10:49:25.967Z,625.00
2023-04-20T10:50:25.967Z,629.00
2023-04-20T10:51:26.085Z,634.00
2023-04-20T10:52:25.962Z,649.00
2023-04-20T10:53:25.955Z,663.00
2023-04-20T10:54:25.950Z,681.00
2023-04-20T10:55:26.307Z,689.00
2023-04-20T10:56:25.975Z,701.00
2023-04-20T10:57:25.978Z,717.00
2023-04-20T10:58:25.987Z,751.00
2023-04-20T10:59:25.994Z,757.00
2023-04-20T11:00:26.048Z,756.00
2023-04-20T11:01:26.040Z,759.00
2023-04-20T11:02:26.130Z,767.00
2023-04-20T11:03:26.104Z,775.00
2023-04-20T11:04:25.926Z,786.00
2023-04-20T11:05:25.951Z,794.00
2023-04-20T11:06:25.939Z,800.00
2023-04-20T11:07:25.882Z,806.00
2023-04-20T11:08:25.876Z,816.00
2023-04-20T11:09:25.858Z,824.00
2023-04-20T11:10:26.304Z,830.00
2023-04-20T11:11:25.795Z,837.00
2023-04-20T11:12:25.763Z,845.00
2023-04-20T11:13:25.820Z,852.00
2023-04-20T11:14:25.698Z,866.00
2023-04-20T11:15:25.716Z,875.00
2023-04-20T11:16:36.339Z,895.00
2023-04-20T11:17:26.761Z,907.00
2023-04-20T11:18:25.608Z,908.00
2023-04-20T11:19:25.606Z,921.00
2023-04-20T11:20:25.500Z,928.00
2023-04-20T11:21:25.768Z,935.00
2023-04-20T11:22:25.424Z,931.00
2023-04-20T11:23:25.391Z,926.00
2023-04-20T11:24:25.306Z,931.00
2023-04-20T11:25:25.282Z,929.00
2023-04-20T11:26:25.208Z,922.00
2023-04-20T11:27:25.183Z,919.00
2023-04-20T11:28:25.108Z,914.00
2023-04-20T11:29:25.104Z,919.00
2023-04-20T11:30:25.017Z,927.00
2023-04-20T11:31:25.391Z,928.00
2023-04-20T11:32:25.121Z,1038.00
2023-04-20T11:33:24.942Z,1031.00
2023-04-20T11:34:24.891Z,1019.00
2023-04-20T11:35:24.846Z,975.00
2023-04-20T11:36:24.809Z,880.00
2023-04-20T11:37:24.753Z,877.00
2023-04-20T11:38:24.736Z,879.00
2023-04-20T11:39:24.762Z,878.00
2023-04-20T11:40:26.640Z,881.00
2023-04-20T11:41:24.696Z,881.00
2023-04-20T11:42:24.636Z,879.00
2023-04-20T11:43:24.593Z,877.00
2023-04-20T11:44:24.568Z,874.00
2023-04-20T11:45:24.578Z,871.00
2023-04-20T11:46:24.484Z,871.00
2023-04-20T11:47:24.445Z,874.00
2023-04-20T11:48:24.417Z,876.00
2023-04-20T11:49:24.350Z,875.00
2023-04-20T11:50:24.332Z,874.00
2023-04-20T11:51:24.255Z,872.00
2023-04-20T11:52:24.221Z,873.00
2023-04-20T11:53:24.169Z,873.00
2023-04-20T11:54:24.492Z,871.00
2023-04-20T11:55:24.127Z,870.00
2023-04-20T11:56:24.121Z,874.00
2023-04-20T11:57:24.078Z,876.00
2023-04-20T11:58:23.922Z,876.00
2023-04-20T11:59:23.892Z,875.00
2023-04-20T12:00:23.849Z,876.00
2023-04-20T12:01:23.844Z,874.00
2023-04-20T12:02:23.919Z,872.00
2023-04-20T12:03:23.906Z,867.00
2023-04-20T12:04:24.124Z,864.00
2023-04-20T12:05:23.770Z,862.00
2023-04-20T12:06:23.631Z,858.00
2023-04-20T12:07:23.577Z,857.00
2023-04-20T12:08:23.517Z,857.00
2023-04-20T12:09:23.452Z,855.00
2023-04-20T12:10:23.402Z,848.00
2023-04-20T12:11:23.380Z,845.00
2023-04-20T12:12:23.321Z,846.00
2023-04-20T12:13:23.284Z,845.00
2023-04-20T12:14:23.240Z,846.00
2023-04-20T12:15:23.165Z,845.00
2023-04-20T12:16:23.116Z,843.00
2023-04-20T12:17:23.100Z,842.00
2023-04-20T12:18:23.042Z,840.00
2023-04-20T12:19:22.993Z,839.00
2023-04-20T12:20:22.911Z,838.00
2023-04-20T12:21:22.906Z,834.00
2023-04-20T12:22:22.867Z,835.00
2023-04-20T12:23:22.776Z,832.00
2023-04-20T12:24:22.725Z,828.00
2023-04-20T12:25:22.656Z,828.00
2023-04-20T12:26:27.000Z,827.00